sensor_id;sensor_type;location;lat;lon;timestamp;P1;durP1;ratioP1;P2;durP2;ratioP2
65755;SDS011;69208;47.502;18.940;2023-08-08T00:00:36;1.73;;;1.00;;
65755;SDS011;69208;47.502;18.940;2023-08-08T00:01:39;0.90;;;0.90;;
65755;SDS011;69208;47.502;18.940;2023-08-08T00:02:45;3.00;;;1.10;;
65755;SDS011;69208;47.502;18.940;2023-08-08T00:03:48;1.00;;;0.90;;
65755;SDS011;69208;47.502;18.940;2023-08-08T00:04:52;1.23;;;0.90;;
65755;SDS011;69208;47.502;18.940;2023-08-08T00:05:54;1.27;;;1.00;;
65755;SDS011;69208;47.502;18.940;2023-08-08T00:06:58;2.58;;;1.00;;
65755;SDS011;69208;47.502;18.940;2023-08-08T00:08:00;1.27;;;0.90;;
65755;SDS011;69208;47.502;18.940;2023-08-08T00:09:03;2.03;;;0.93;;
65755;SDS011;69208;47.502;18.940;2023-08-08T00:10:07;1.00;;;1.00;;
65755;SDS011;69208;47.502;18.940;2023-08-08T00:11:11;0.90;;;0.90;;
65755;SDS011;69208;47.502;18.940;2023-08-08T00:12:13;2.37;;;0.95;;
65755;SDS011;69208;47.502;18.940;2023-08-08T00:13:17;2.05;;;1.00;;
65755;SDS011;69208;47.502;18.940;2023-08-08T00:14:20;1.08;;;1.08;;
65755;SDS011;69208;47.502;18.940;2023-08-08T00:15:23;1.05;;;0.93;;
65755;SDS011;69208;47.502;18.940;2023-08-08T00:16:26;2.37;;;1.00;;
65755;SDS011;69208;47.502;18.940;2023-08-08T00:17:29;0.88;;;0.88;;
65755;SDS011;69208;47.502;18.940;2023-08-08T00:18:32;3.65;;;1.00;;
65755;SDS011;69208;47.502;18.940;2023-08-08T00:19:35;1.25;;;1.10;;
65755;SDS011;69208;47.502;18.940;2023-08-08T00:20:38;1.25;;;0.93;;
65755;SDS011;69208;47.502;18.940;2023-08-08T00:21:41;1.85;;;1.10;;
65755;SDS011;69208;47.502;18.940;2023-08-08T00:22:44;1.20;;;1.10;;
65755;SDS011;69208;47.502;18.940;2023-08-08T00:23:47;1.83;;;0.85;;
65755;SDS011;69208;47.502;18.940;2023-08-08T00:24:50;1.70;;;1.20;;
65755;SDS011;69208;47.502;18.940;2023-08-08T00:25:53;2.22;;;1.20;;
65755;SDS011;69208;47.502;18.940;2023-08-08T00:26:56;3.40;;;1.20;;
65755;SDS011;69208;47.502;18.940;2023-08-08T00:27:59;2.33;;;1.05;;
65755;SDS011;69208;47.502;18.940;2023-08-08T00:29:02;3.50;;;1.12;;
65755;SDS011;69208;47.502;18.940;2023-08-08T00:30:05;1.08;;;0.98;;
65755;SDS011;69208;47.502;18.940;2023-08-08T00:31:11;1.20;;;1.10;;
65755;SDS011;69208;47.502;18.940;2023-08-08T00:32:14;1.80;;;1.10;;
65755;SDS011;69208;47.502;18.940;2023-08-08T00:33:17;1.45;;;1.20;;
65755;SDS011;69208;47.502;18.940;2023-08-08T00:34:20;1.27;;;1.17;;
65755;SDS011;69208;47.502;18.940;2023-08-08T00:35:23;7.62;;;1.25;;
65755;SDS011;69208;47.502;18.940;2023-08-08T00:36:26;2.42;;;1.12;;
65755;SDS011;69208;47.502;18.940;2023-08-08T00:37:29;2.50;;;1.23;;
65755;SDS011;69208;47.502;18.940;2023-08-08T00:38:32;1.23;;;1.12;;
65755;SDS011;69208;47.502;18.940;2023-08-08T00:39:35;1.20;;;1.10;;
65755;SDS011;69208;47.502;18.940;2023-08-08T00:40:38;2.05;;;1.42;;
65755;SDS011;69208;47.502;18.940;2023-08-08T00:41:41;0.88;;;0.85;;
65755;SDS011;69208;47.502;18.940;2023-08-08T00:42:44;1.30;;;1.20;;
65755;SDS011;69208;47.502;18.940;2023-08-08T00:43:47;1.30;;;1.20;;
65755;SDS011;69208;47.502;18.940;2023-08-08T00:44:51;1.73;;;1.12;;
65755;SDS011;69208;47.502;18.940;2023-08-08T00:45:54;1.65;;;1.20;;
65755;SDS011;69208;47.502;18.940;2023-08-08T00:46:57;2.45;;;1.48;;
65755;SDS011;69208;47.502;18.940;2023-08-08T00:48:01;2.03;;;1.30;;
65755;SDS011;69208;47.502;18.940;2023-08-08T00:49:04;2.30;;;1.15;;
65755;SDS011;69208;47.502;18.940;2023-08-08T00:50:07;1.42;;;1.20;;
65755;SDS011;69208;47.502;18.940;2023-08-08T00:51:13;2.28;;;1.30;;
65755;SDS011;69208;47.502;18.940;2023-08-08T00:52:17;7.75;;;1.30;;
65755;SDS011;69208;47.502;18.940;2023-08-08T00:53:20;3.15;;;1.10;;
65755;SDS011;69208;47.502;18.940;2023-08-08T00:54:25;1.77;;;1.33;;
65755;SDS011;69208;47.502;18.940;2023-08-08T00:55:29;1.30;;;1.20;;
65755;SDS011;69208;47.502;18.940;2023-08-08T00:56:33;1.87;;;1.30;;
65755;SDS011;69208;47.502;18.940;2023-08-08T00:57:36;1.27;;;1.17;;
65755;SDS011;69208;47.502;18.940;2023-08-08T00:58:41;1.20;;;1.10;;
65755;SDS011;69208;47.502;18.940;2023-08-08T00:59:44;1.95;;;1.15;;
65755;SDS011;69208;47.502;18.940;2023-08-08T01:00:47;1.52;;;1.20;;
65755;SDS011;69208;47.502;18.940;2023-08-08T01:01:50;1.20;;;1.10;;
65755;SDS011;69208;47.502;18.940;2023-08-08T01:02:53;1.37;;;1.27;;
65755;SDS011;69208;47.502;18.940;2023-08-08T01:03:56;1.20;;;1.17;;
65755;SDS011;69208;47.502;18.940;2023-08-08T01:05:00;2.08;;;1.20;;
65755;SDS011;69208;47.502;18.940;2023-08-08T01:06:10;1.17;;;1.08;;
65755;SDS011;69208;47.502;18.940;2023-08-08T01:08:48;1.33;;;1.15;;
65755;SDS011;69208;47.502;18.940;2023-08-08T01:10:12;3.20;;;1.20;;
65755;SDS011;69208;47.502;18.940;2023-08-08T01:11:18;2.92;;;1.30;;
65755;SDS011;69208;47.502;18.940;2023-08-08T01:12:23;3.20;;;1.17;;
65755;SDS011;69208;47.502;18.940;2023-08-08T01:13:28;2.70;;;1.23;;
65755;SDS011;69208;47.502;18.940;2023-08-08T01:14:34;1.80;;;1.40;;
65755;SDS011;69208;47.502;18.940;2023-08-08T01:15:38;1.40;;;1.27;;
65755;SDS011;69208;47.502;18.940;2023-08-08T01:16:42;2.80;;;1.30;;
65755;SDS011;69208;47.502;18.940;2023-08-08T01:17:46;2.17;;;1.23;;
65755;SDS011;69208;47.502;18.940;2023-08-08T01:18:50;1.33;;;1.23;;
65755;SDS011;69208;47.502;18.940;2023-08-08T01:19:54;2.03;;;1.42;;
65755;SDS011;69208;47.502;18.940;2023-08-08T01:20:58;1.75;;;1.20;;
65755;SDS011;69208;47.502;18.940;2023-08-08T01:22:02;2.30;;;1.30;;
65755;SDS011;69208;47.502;18.940;2023-08-08T01:23:16;2.17;;;1.40;;
65755;SDS011;69208;47.502;18.940;2023-08-08T01:24:26;1.15;;;1.12;;
65755;SDS011;69208;47.502;18.940;2023-08-08T01:25:31;2.55;;;1.55;;
65755;SDS011;69208;47.502;18.940;2023-08-08T01:26:35;2.95;;;1.48;;
65755;SDS011;69208;47.502;18.940;2023-08-08T01:27:38;2.47;;;1.37;;
65755;SDS011;69208;47.502;18.940;2023-08-08T01:28:42;3.78;;;1.50;;
65755;SDS011;69208;47.502;18.940;2023-08-08T01:29:46;4.50;;;1.42;;
65755;SDS011;69208;47.502;18.940;2023-08-08T01:30:49;1.40;;;1.30;;
65755;SDS011;69208;47.502;18.940;2023-08-08T01:31:53;1.92;;;1.40;;
65755;SDS011;69208;47.502;18.940;2023-08-08T01:32:56;3.17;;;1.40;;
65755;SDS011;69208;47.502;18.940;2023-08-08T01:33:59;1.70;;;1.37;;
65755;SDS011;69208;47.502;18.940;2023-08-08T01:35:02;1.60;;;1.30;;
65755;SDS011;69208;47.502;18.940;2023-08-08T01:36:22;2.40;;;1.42;;
65755;SDS011;69208;47.502;18.940;2023-08-08T01:37:41;1.42;;;1.33;;
65755;SDS011;69208;47.502;18.940;2023-08-08T01:38:48;1.50;;;1.40;;
65755;SDS011;69208;47.502;18.940;2023-08-08T01:39:57;2.95;;;1.30;;
65755;SDS011;69208;47.502;18.940;2023-08-08T01:41:02;2.45;;;1.33;;
65755;SDS011;69208;47.502;18.940;2023-08-08T01:42:08;1.30;;;1.20;;
65755;SDS011;69208;47.502;18.940;2023-08-08T01:43:14;1.20;;;1.20;;
65755;SDS011;69208;47.502;18.940;2023-08-08T01:44:18;1.50;;;1.35;;
65755;SDS011;69208;47.502;18.940;2023-08-08T01:45:21;2.65;;;1.33;;
65755;SDS011;69208;47.502;18.940;2023-08-08T01:46:27;2.12;;;1.45;;
65755;SDS011;69208;47.502;18.940;2023-08-08T01:47:31;2.47;;;1.58;;
65755;SDS011;69208;47.502;18.940;2023-08-08T01:48:34;1.52;;;1.40;;
65755;SDS011;69208;47.502;18.940;2023-08-08T01:49:37;1.77;;;1.37;;
65755;SDS011;69208;47.502;18.940;2023-08-08T01:50:40;1.98;;;1.33;;
65755;SDS011;69208;47.502;18.940;2023-08-08T01:51:43;1.75;;;1.50;;
65755;SDS011;69208;47.502;18.940;2023-08-08T01:52:46;5.20;;;1.60;;
65755;SDS011;69208;47.502;18.940;2023-08-08T01:53:49;3.05;;;1.45;;
65755;SDS011;69208;47.502;18.940;2023-08-08T01:54:52;2.95;;;1.48;;
65755;SDS011;69208;47.502;18.940;2023-08-08T01:55:54;7.30;;;1.40;;
65755;SDS011;69208;47.502;18.940;2023-08-08T01:56:57;1.62;;;1.35;;
65755;SDS011;69208;47.502;18.940;2023-08-08T01:58:00;3.28;;;1.50;;
65755;SDS011;69208;47.502;18.940;2023-08-08T01:59:03;1.37;;;1.27;;
65755;SDS011;69208;47.502;18.940;2023-08-08T02:00:06;2.40;;;1.40;;
65755;SDS011;69208;47.502;18.940;2023-08-08T02:01:10;2.58;;;1.48;;
65755;SDS011;69208;47.502;18.940;2023-08-08T02:02:13;2.28;;;1.30;;
65755;SDS011;69208;47.502;18.940;2023-08-08T02:03:17;1.73;;;1.27;;
65755;SDS011;69208;47.502;18.940;2023-08-08T02:04:20;4.45;;;1.40;;
65755;SDS011;69208;47.502;18.940;2023-08-08T02:05:23;1.55;;;1.45;;
65755;SDS011;69208;47.502;18.940;2023-08-08T02:06:26;1.50;;;1.30;;
65755;SDS011;69208;47.502;18.940;2023-08-08T02:07:29;3.75;;;1.40;;
65755;SDS011;69208;47.502;18.940;2023-08-08T02:08:32;2.37;;;1.45;;
65755;SDS011;69208;47.502;18.940;2023-08-08T02:09:35;3.20;;;1.52;;
65755;SDS011;69208;47.502;18.940;2023-08-08T02:10:38;1.95;;;1.52;;
65755;SDS011;69208;47.502;18.940;2023-08-08T02:11:41;1.67;;;1.15;;
65755;SDS011;69208;47.502;18.940;2023-08-08T02:12:44;4.70;;;1.62;;
65755;SDS011;69208;47.502;18.940;2023-08-08T02:13:47;1.83;;;1.23;;
65755;SDS011;69208;47.502;18.940;2023-08-08T02:14:50;2.10;;;1.30;;
65755;SDS011;69208;47.502;18.940;2023-08-08T02:15:53;2.90;;;1.40;;
65755;SDS011;69208;47.502;18.940;2023-08-08T02:16:56;1.58;;;1.40;;
65755;SDS011;69208;47.502;18.940;2023-08-08T02:18:00;3.50;;;1.50;;
65755;SDS011;69208;47.502;18.940;2023-08-08T02:19:03;2.85;;;1.60;;
65755;SDS011;69208;47.502;18.940;2023-08-08T02:20:06;1.33;;;1.23;;
65755;SDS011;69208;47.502;18.940;2023-08-08T02:21:10;3.40;;;1.52;;
65755;SDS011;69208;47.502;18.940;2023-08-08T02:22:13;1.87;;;1.37;;
65755;SDS011;69208;47.502;18.940;2023-08-08T02:23:16;2.20;;;1.42;;
65755;SDS011;69208;47.502;18.940;2023-08-08T02:24:19;1.75;;;1.30;;
65755;SDS011;69208;47.502;18.940;2023-08-08T02:25:22;2.12;;;1.50;;
65755;SDS011;69208;47.502;18.940;2023-08-08T02:26:25;1.50;;;1.40;;
65755;SDS011;69208;47.502;18.940;2023-08-08T02:27:28;3.37;;;1.60;;
65755;SDS011;69208;47.502;18.940;2023-08-08T02:28:31;2.60;;;1.58;;
65755;SDS011;69208;47.502;18.940;2023-08-08T02:29:34;1.50;;;1.40;;
65755;SDS011;69208;47.502;18.940;2023-08-08T02:30:37;1.92;;;1.35;;
65755;SDS011;69208;47.502;18.940;2023-08-08T02:31:40;1.40;;;1.30;;
65755;SDS011;69208;47.502;18.940;2023-08-08T02:32:43;2.17;;;1.50;;
65755;SDS011;69208;47.502;18.940;2023-08-08T02:33:50;2.30;;;1.50;;
65755;SDS011;69208;47.502;18.940;2023-08-08T02:34:54;1.65;;;1.40;;
65755;SDS011;69208;47.502;18.940;2023-08-08T02:35:56;1.50;;;1.40;;
65755;SDS011;69208;47.502;18.940;2023-08-08T02:36:59;2.17;;;1.70;;
65755;SDS011;69208;47.502;18.940;2023-08-08T02:38:02;3.30;;;1.48;;
65755;SDS011;69208;47.502;18.940;2023-08-08T02:39:05;3.03;;;1.52;;
65755;SDS011;69208;47.502;18.940;2023-08-08T02:40:08;1.40;;;1.30;;
65755;SDS011;69208;47.502;18.940;2023-08-08T02:41:12;1.37;;;1.27;;
65755;SDS011;69208;47.502;18.940;2023-08-08T02:42:15;2.87;;;1.50;;
65755;SDS011;69208;47.502;18.940;2023-08-08T02:43:18;1.87;;;1.52;;
65755;SDS011;69208;47.502;18.940;2023-08-08T02:44:21;1.90;;;1.40;;
65755;SDS011;69208;47.502;18.940;2023-08-08T02:45:24;2.15;;;1.50;;
65755;SDS011;69208;47.502;18.940;2023-08-08T02:46:27;2.72;;;1.45;;
65755;SDS011;69208;47.502;18.940;2023-08-08T02:47:30;2.30;;;1.55;;
65755;SDS011;69208;47.502;18.940;2023-08-08T02:48:33;3.12;;;1.50;;
65755;SDS011;69208;47.502;18.940;2023-08-08T02:49:36;1.50;;;1.40;;
65755;SDS011;69208;47.502;18.940;2023-08-08T02:50:39;2.37;;;1.27;;
65755;SDS011;69208;47.502;18.940;2023-08-08T02:51:42;2.75;;;1.52;;
65755;SDS011;69208;47.502;18.940;2023-08-08T02:52:45;2.67;;;1.30;;
65755;SDS011;69208;47.502;18.940;2023-08-08T02:53:48;1.70;;;1.35;;
65755;SDS011;69208;47.502;18.940;2023-08-08T02:54:51;2.55;;;1.35;;
65755;SDS011;69208;47.502;18.940;2023-08-08T02:55:54;5.85;;;1.48;;
65755;SDS011;69208;47.502;18.940;2023-08-08T02:56:57;1.35;;;1.23;;
65755;SDS011;69208;47.502;18.940;2023-08-08T02:58:00;1.60;;;1.33;;
65755;SDS011;69208;47.502;18.940;2023-08-08T02:59:03;1.40;;;1.25;;
65755;SDS011;69208;47.502;18.940;2023-08-08T03:00:06;2.50;;;1.35;;
65755;SDS011;69208;47.502;18.940;2023-08-08T03:01:10;1.83;;;1.30;;
65755;SDS011;69208;47.502;18.940;2023-08-08T03:02:16;5.25;;;1.40;;
65755;SDS011;69208;47.502;18.940;2023-08-08T03:03:19;1.37;;;1.27;;
65755;SDS011;69208;47.502;18.940;2023-08-08T03:04:22;2.45;;;1.50;;
65755;SDS011;69208;47.502;18.940;2023-08-08T03:05:25;3.12;;;1.40;;
65755;SDS011;69208;47.502;18.940;2023-08-08T03:06:27;1.30;;;1.20;;
65755;SDS011;69208;47.502;18.940;2023-08-08T03:07:31;2.67;;;1.37;;
65755;SDS011;69208;47.502;18.940;2023-08-08T03:08:33;2.58;;;1.50;;
65755;SDS011;69208;47.502;18.940;2023-08-08T03:09:36;1.30;;;1.20;;
65755;SDS011;69208;47.502;18.940;2023-08-08T03:10:39;1.30;;;1.20;;
65755;SDS011;69208;47.502;18.940;2023-08-08T03:11:43;2.03;;;1.40;;
65755;SDS011;69208;47.502;18.940;2023-08-08T03:12:46;2.05;;;1.45;;
65755;SDS011;69208;47.502;18.940;2023-08-08T03:13:49;2.72;;;1.60;;
65755;SDS011;69208;47.502;18.940;2023-08-08T03:14:53;2.78;;;1.37;;
65755;SDS011;69208;47.502;18.940;2023-08-08T03:15:56;2.08;;;1.30;;
65755;SDS011;69208;47.502;18.940;2023-08-08T03:16:59;1.73;;;1.50;;
65755;SDS011;69208;47.502;18.940;2023-08-08T03:18:03;2.35;;;1.48;;
65755;SDS011;69208;47.502;18.940;2023-08-08T03:19:06;3.62;;;1.50;;
65755;SDS011;69208;47.502;18.940;2023-08-08T03:20:09;2.47;;;1.50;;
65755;SDS011;69208;47.502;18.940;2023-08-08T03:21:13;1.50;;;1.25;;
65755;SDS011;69208;47.502;18.940;2023-08-08T03:22:16;1.73;;;1.30;;
65755;SDS011;69208;47.502;18.940;2023-08-08T03:23:19;3.10;;;1.37;;
65755;SDS011;69208;47.502;18.940;2023-08-08T03:24:22;1.70;;;1.45;;
65755;SDS011;69208;47.502;18.940;2023-08-08T03:25:25;3.70;;;1.50;;
65755;SDS011;69208;47.502;18.940;2023-08-08T03:26:28;3.25;;;1.50;;
65755;SDS011;69208;47.502;18.940;2023-08-08T03:27:31;1.87;;;1.40;;
65755;SDS011;69208;47.502;18.940;2023-08-08T03:28:34;1.90;;;1.40;;
65755;SDS011;69208;47.502;18.940;2023-08-08T03:29:37;3.60;;;1.40;;
65755;SDS011;69208;47.502;18.940;2023-08-08T03:30:40;3.03;;;1.50;;
65755;SDS011;69208;47.502;18.940;2023-08-08T03:31:43;2.87;;;1.50;;
65755;SDS011;69208;47.502;18.940;2023-08-08T03:32:46;2.00;;;1.30;;
65755;SDS011;69208;47.502;18.940;2023-08-08T03:33:49;2.05;;;1.40;;
65755;SDS011;69208;47.502;18.940;2023-08-08T03:34:52;3.85;;;1.45;;
65755;SDS011;69208;47.502;18.940;2023-08-08T03:35:55;4.10;;;1.60;;
65755;SDS011;69208;47.502;18.940;2023-08-08T03:36:58;1.98;;;1.30;;
65755;SDS011;69208;47.502;18.940;2023-08-08T03:38:02;3.95;;;1.40;;
65755;SDS011;69208;47.502;18.940;2023-08-08T03:39:05;3.72;;;1.58;;
65755;SDS011;69208;47.502;18.940;2023-08-08T03:40:10;2.42;;;1.52;;
65755;SDS011;69208;47.502;18.940;2023-08-08T03:41:16;3.95;;;1.42;;
65755;SDS011;69208;47.502;18.940;2023-08-08T03:42:19;2.53;;;1.40;;
65755;SDS011;69208;47.502;18.940;2023-08-08T03:43:22;3.25;;;1.50;;
65755;SDS011;69208;47.502;18.940;2023-08-08T03:44:25;2.72;;;1.58;;
65755;SDS011;69208;47.502;18.940;2023-08-08T03:45:28;2.20;;;1.40;;
65755;SDS011;69208;47.502;18.940;2023-08-08T03:46:31;1.90;;;1.40;;
65755;SDS011;69208;47.502;18.940;2023-08-08T03:47:36;1.50;;;1.40;;
65755;SDS011;69208;47.502;18.940;2023-08-08T03:48:39;2.37;;;1.60;;
65755;SDS011;69208;47.502;18.940;2023-08-08T03:49:42;2.15;;;1.25;;
65755;SDS011;69208;47.502;18.940;2023-08-08T03:50:45;1.65;;;1.48;;
65755;SDS011;69208;47.502;18.940;2023-08-08T03:51:48;2.95;;;1.65;;
65755;SDS011;69208;47.502;18.940;2023-08-08T03:52:51;3.70;;;1.67;;
65755;SDS011;69208;47.502;18.940;2023-08-08T03:53:55;3.10;;;1.70;;
65755;SDS011;69208;47.502;18.940;2023-08-08T03:54:58;1.75;;;1.30;;
65755;SDS011;69208;47.502;18.940;2023-08-08T03:56:01;1.55;;;1.33;;
65755;SDS011;69208;47.502;18.940;2023-08-08T03:57:04;2.58;;;1.67;;
65755;SDS011;69208;47.502;18.940;2023-08-08T03:58:07;3.90;;;1.58;;
65755;SDS011;69208;47.502;18.940;2023-08-08T03:59:10;1.87;;;1.48;;
65755;SDS011;69208;47.502;18.940;2023-08-08T04:00:13;3.50;;;1.70;;
65755;SDS011;69208;47.502;18.940;2023-08-08T04:01:16;3.42;;;1.60;;
65755;SDS011;69208;47.502;18.940;2023-08-08T04:02:19;2.17;;;1.42;;
65755;SDS011;69208;47.502;18.940;2023-08-08T04:03:22;2.75;;;1.65;;
65755;SDS011;69208;47.502;18.940;2023-08-08T04:04:25;2.58;;;1.50;;
65755;SDS011;69208;47.502;18.940;2023-08-08T04:05:27;2.65;;;1.50;;
65755;SDS011;69208;47.502;18.940;2023-08-08T04:06:30;3.50;;;1.60;;
65755;SDS011;69208;47.502;18.940;2023-08-08T04:07:34;2.70;;;1.70;;
65755;SDS011;69208;47.502;18.940;2023-08-08T04:08:37;2.30;;;1.40;;
65755;SDS011;69208;47.502;18.940;2023-08-08T04:09:40;1.48;;;1.37;;
65755;SDS011;69208;47.502;18.940;2023-08-08T04:10:43;2.47;;;1.50;;
65755;SDS011;69208;47.502;18.940;2023-08-08T04:11:49;3.28;;;1.80;;
65755;SDS011;69208;47.502;18.940;2023-08-08T04:12:52;6.50;;;1.77;;
65755;SDS011;69208;47.502;18.940;2023-08-08T04:13:55;2.45;;;1.60;;
65755;SDS011;69208;47.502;18.940;2023-08-08T04:14:58;1.67;;;1.50;;
65755;SDS011;69208;47.502;18.940;2023-08-08T04:16:01;2.10;;;1.50;;
65755;SDS011;69208;47.502;18.940;2023-08-08T04:17:04;2.45;;;1.50;;
65755;SDS011;69208;47.502;18.940;2023-08-08T04:18:08;2.17;;;1.50;;
65755;SDS011;69208;47.502;18.940;2023-08-08T04:19:11;2.40;;;1.67;;
65755;SDS011;69208;47.502;18.940;2023-08-08T04:20:14;1.85;;;1.65;;
65755;SDS011;69208;47.502;18.940;2023-08-08T04:21:17;5.30;;;1.70;;
65755;SDS011;69208;47.502;18.940;2023-08-08T04:22:20;3.87;;;1.70;;
65755;SDS011;69208;47.502;18.940;2023-08-08T04:23:22;5.37;;;1.70;;
65755;SDS011;69208;47.502;18.940;2023-08-08T04:24:28;3.22;;;1.52;;
65755;SDS011;69208;47.502;18.940;2023-08-08T04:25:31;2.58;;;1.75;;
65755;SDS011;69208;47.502;18.940;2023-08-08T04:26:34;1.92;;;1.65;;
65755;SDS011;69208;47.502;18.940;2023-08-08T04:27:37;2.78;;;1.60;;
65755;SDS011;69208;47.502;18.940;2023-08-08T04:28:40;5.18;;;1.65;;
65755;SDS011;69208;47.502;18.940;2023-08-08T04:29:43;3.40;;;1.90;;
65755;SDS011;69208;47.502;18.940;2023-08-08T04:30:46;5.47;;;1.70;;
65755;SDS011;69208;47.502;18.940;2023-08-08T04:31:49;2.60;;;1.73;;
65755;SDS011;69208;47.502;18.940;2023-08-08T04:32:52;3.45;;;1.90;;
65755;SDS011;69208;47.502;18.940;2023-08-08T04:33:55;4.40;;;1.65;;
65755;SDS011;69208;47.502;18.940;2023-08-08T04:35:03;2.65;;;1.77;;
65755;SDS011;69208;47.502;18.940;2023-08-08T04:36:06;2.42;;;1.73;;
65755;SDS011;69208;47.502;18.940;2023-08-08T04:37:09;3.60;;;1.87;;
65755;SDS011;69208;47.502;18.940;2023-08-08T04:38:13;2.50;;;1.60;;
65755;SDS011;69208;47.502;18.940;2023-08-08T04:39:18;4.15;;;1.70;;
65755;SDS011;69208;47.502;18.940;2023-08-08T04:40:20;4.37;;;1.75;;
65755;SDS011;69208;47.502;18.940;2023-08-08T04:41:23;2.15;;;1.67;;
65755;SDS011;69208;47.502;18.940;2023-08-08T04:42:26;3.40;;;1.90;;
65755;SDS011;69208;47.502;18.940;2023-08-08T04:43:29;4.40;;;2.00;;
65755;SDS011;69208;47.502;18.940;2023-08-08T04:44:33;4.15;;;1.80;;
65755;SDS011;69208;47.502;18.940;2023-08-08T04:45:35;2.72;;;1.58;;
65755;SDS011;69208;47.502;18.940;2023-08-08T04:46:38;1.62;;;1.52;;
65755;SDS011;69208;47.502;18.940;2023-08-08T04:47:41;4.07;;;1.87;;
65755;SDS011;69208;47.502;18.940;2023-08-08T04:48:45;3.97;;;1.80;;
65755;SDS011;69208;47.502;18.940;2023-08-08T04:49:47;2.35;;;1.70;;
65755;SDS011;69208;47.502;18.940;2023-08-08T04:50:50;3.50;;;1.90;;
65755;SDS011;69208;47.502;18.940;2023-08-08T04:51:54;7.95;;;1.65;;
65755;SDS011;69208;47.502;18.940;2023-08-08T04:52:57;2.67;;;1.67;;
65755;SDS011;69208;47.502;18.940;2023-08-08T04:54:00;2.60;;;1.75;;
65755;SDS011;69208;47.502;18.940;2023-08-08T04:55:03;2.90;;;1.50;;
65755;SDS011;69208;47.502;18.940;2023-08-08T04:56:06;3.40;;;1.90;;
65755;SDS011;69208;47.502;18.940;2023-08-08T04:57:08;2.78;;;1.70;;
65755;SDS011;69208;47.502;18.940;2023-08-08T04:58:11;1.98;;;1.60;;
65755;SDS011;69208;47.502;18.940;2023-08-08T04:59:14;4.47;;;1.85;;
65755;SDS011;69208;47.502;18.940;2023-08-08T05:00:17;3.33;;;1.85;;
65755;SDS011;69208;47.502;18.940;2023-08-08T05:01:20;5.95;;;2.00;;
65755;SDS011;69208;47.502;18.940;2023-08-08T05:02:24;2.92;;;1.73;;
65755;SDS011;69208;47.502;18.940;2023-08-08T05:03:27;2.67;;;1.80;;
65755;SDS011;69208;47.502;18.940;2023-08-08T05:04:30;3.67;;;1.98;;
65755;SDS011;69208;47.502;18.940;2023-08-08T05:05:33;13.18;;;1.87;;
65755;SDS011;69208;47.502;18.940;2023-08-08T05:06:36;4.65;;;1.73;;
65755;SDS011;69208;47.502;18.940;2023-08-08T05:07:39;3.17;;;1.73;;
65755;SDS011;69208;47.502;18.940;2023-08-08T05:08:43;1.95;;;1.58;;
65755;SDS011;69208;47.502;18.940;2023-08-08T05:09:46;2.53;;;1.80;;
65755;SDS011;69208;47.502;18.940;2023-08-08T05:10:49;4.35;;;1.98;;
65755;SDS011;69208;47.502;18.940;2023-08-08T05:11:53;3.03;;;1.70;;
65755;SDS011;69208;47.502;18.940;2023-08-08T05:12:56;2.58;;;1.70;;
65755;SDS011;69208;47.502;18.940;2023-08-08T05:14:00;3.47;;;1.80;;
65755;SDS011;69208;47.502;18.940;2023-08-08T05:15:03;3.17;;;1.85;;
65755;SDS011;69208;47.502;18.940;2023-08-08T05:16:06;3.78;;;1.87;;
65755;SDS011;69208;47.502;18.940;2023-08-08T05:17:09;2.75;;;1.75;;
65755;SDS011;69208;47.502;18.940;2023-08-08T05:18:12;4.18;;;1.70;;
65755;SDS011;69208;47.502;18.940;2023-08-08T05:19:15;2.80;;;1.75;;
65755;SDS011;69208;47.502;18.940;2023-08-08T05:20:18;3.65;;;1.80;;
65755;SDS011;69208;47.502;18.940;2023-08-08T05:21:21;3.20;;;1.70;;
65755;SDS011;69208;47.502;18.940;2023-08-08T05:22:24;4.03;;;1.62;;
65755;SDS011;69208;47.502;18.940;2023-08-08T05:23:27;3.60;;;1.90;;
65755;SDS011;69208;47.502;18.940;2023-08-08T05:24:30;2.70;;;1.80;;
65755;SDS011;69208;47.502;18.940;2023-08-08T05:25:33;7.85;;;2.35;;
65755;SDS011;69208;47.502;18.940;2023-08-08T05:26:36;5.12;;;2.10;;
65755;SDS011;69208;47.502;18.940;2023-08-08T05:27:39;2.87;;;2.05;;
65755;SDS011;69208;47.502;18.940;2023-08-08T05:28:42;3.42;;;1.92;;
65755;SDS011;69208;47.502;18.940;2023-08-08T05:29:45;2.55;;;1.75;;
65755;SDS011;69208;47.502;18.940;2023-08-08T05:30:48;1.98;;;1.80;;
65755;SDS011;69208;47.502;18.940;2023-08-08T05:31:51;2.25;;;1.75;;
65755;SDS011;69208;47.502;18.940;2023-08-08T05:32:54;3.15;;;1.95;;
65755;SDS011;69208;47.502;18.940;2023-08-08T05:33:57;2.40;;;1.70;;
65755;SDS011;69208;47.502;18.940;2023-08-08T05:35:01;2.17;;;1.50;;
65755;SDS011;69208;47.502;18.940;2023-08-08T05:36:06;4.43;;;1.90;;
65755;SDS011;69208;47.502;18.940;2023-08-08T05:37:10;9.60;;;1.80;;
65755;SDS011;69208;47.502;18.940;2023-08-08T05:38:18;4.40;;;2.00;;
65755;SDS011;69208;47.502;18.940;2023-08-08T05:39:21;2.87;;;1.70;;
65755;SDS011;69208;47.502;18.940;2023-08-08T05:40:24;2.22;;;1.70;;
65755;SDS011;69208;47.502;18.940;2023-08-08T05:41:27;3.55;;;1.80;;
65755;SDS011;69208;47.502;18.940;2023-08-08T05:42:30;2.75;;;1.80;;
65755;SDS011;69208;47.502;18.940;2023-08-08T05:43:34;3.05;;;1.90;;
65755;SDS011;69208;47.502;18.940;2023-08-08T05:44:38;2.17;;;1.65;;
65755;SDS011;69208;47.502;18.940;2023-08-08T05:45:41;3.10;;;1.90;;
65755;SDS011;69208;47.502;18.940;2023-08-08T05:46:44;2.60;;;1.67;;
65755;SDS011;69208;47.502;18.940;2023-08-08T05:47:47;1.83;;;1.60;;
65755;SDS011;69208;47.502;18.940;2023-08-08T05:48:50;2.37;;;1.70;;
65755;SDS011;69208;47.502;18.940;2023-08-08T05:49:53;2.75;;;1.70;;
65755;SDS011;69208;47.502;18.940;2023-08-08T05:50:56;3.12;;;1.90;;
65755;SDS011;69208;47.502;18.940;2023-08-08T05:52:01;3.65;;;1.80;;
65755;SDS011;69208;47.502;18.940;2023-08-08T05:53:05;4.15;;;1.83;;
65755;SDS011;69208;47.502;18.940;2023-08-08T05:54:08;3.28;;;2.00;;
65755;SDS011;69208;47.502;18.940;2023-08-08T05:55:11;3.00;;;1.92;;
65755;SDS011;69208;47.502;18.940;2023-08-08T05:56:14;3.30;;;1.87;;
65755;SDS011;69208;47.502;18.940;2023-08-08T05:57:16;4.68;;;1.98;;
65755;SDS011;69208;47.502;18.940;2023-08-08T05:58:19;3.15;;;2.00;;
65755;SDS011;69208;47.502;18.940;2023-08-08T05:59:22;3.08;;;1.95;;
65755;SDS011;69208;47.502;18.940;2023-08-08T06:00:25;3.60;;;1.83;;
65755;SDS011;69208;47.502;18.940;2023-08-08T06:01:29;3.83;;;1.55;;
65755;SDS011;69208;47.502;18.940;2023-08-08T06:02:32;3.95;;;1.80;;
65755;SDS011;69208;47.502;18.940;2023-08-08T06:03:35;3.37;;;1.80;;
65755;SDS011;69208;47.502;18.940;2023-08-08T06:04:40;3.75;;;1.90;;
65755;SDS011;69208;47.502;18.940;2023-08-08T06:05:43;3.70;;;2.00;;
65755;SDS011;69208;47.502;18.940;2023-08-08T06:06:46;4.22;;;1.85;;
65755;SDS011;69208;47.502;18.940;2023-08-08T06:07:51;2.85;;;1.90;;
65755;SDS011;69208;47.502;18.940;2023-08-08T06:08:54;4.78;;;1.80;;
65755;SDS011;69208;47.502;18.940;2023-08-08T06:09:57;3.80;;;1.87;;
65755;SDS011;69208;47.502;18.940;2023-08-08T06:11:00;3.67;;;1.77;;
65755;SDS011;69208;47.502;18.940;2023-08-08T06:12:03;3.30;;;1.80;;
65755;SDS011;69208;47.502;18.940;2023-08-08T06:13:06;2.90;;;2.00;;
65755;SDS011;69208;47.502;18.940;2023-08-08T06:14:09;2.35;;;1.62;;
65755;SDS011;69208;47.502;18.940;2023-08-08T06:15:12;3.95;;;2.08;;
65755;SDS011;69208;47.502;18.940;2023-08-08T06:16:15;4.30;;;1.90;;
65755;SDS011;69208;47.502;18.940;2023-08-08T06:17:18;3.75;;;1.87;;
65755;SDS011;69208;47.502;18.940;2023-08-08T06:18:22;5.80;;;2.20;;